Roscoe, New York
Current Conditions -  °F | °C
As of 10:35 PM on Saturday 22 Nov 2014 (Local Time) from KMSV Reporting Station
Overcast Overcast  
Wind Chill: 32°   Ceiling: 4200
Heat Index: 36°   Visibility: 10mi
Dew Point: 25°   Wind: 5mph
Humidity: 65%   Direction: 300°WNW
Pressure: 30.12"   Gusts: NA
Location:  41.93°N, 74.91°W
Report Text: KMSV 230335Z AUTO 30004KT 10SM OVC042 02/M04 A3012 RMK AO1
Loading
Personal Weather Stations






























Interactive Weather Map New forecast layout! Learn more

10-Day Weather Forecast

Advertisements
Track Severe Weather on mobile